createdAt,value
2022-07-31T00:00:29.971Z,97624.69
2022-07-31T00:02:59.250Z,97642.00
2022-07-31T00:05:27.058Z,97639.69
2022-07-31T00:07:54.980Z,97640.91
2022-07-31T00:10:22.752Z,97632.63
2022-07-31T00:12:50.265Z,97628.34
2022-07-31T00:15:18.419Z,97629.25
2022-07-31T00:17:46.367Z,97636.31
2022-07-31T00:20:15.827Z,97636.31
2022-07-31T00:22:47.285Z,97639.06
2022-07-31T00:25:16.513Z,97635.84
2022-07-31T00:27:43.997Z,97617.91
2022-07-31T00:30:17.147Z,97635.84
2022-07-31T00:32:46.035Z,97641.34
2022-07-31T00:35:14.460Z,97632.75
2022-07-31T00:37:44.754Z,97629.25
2022-07-31T00:40:17.123Z,97630.00
2022-07-31T00:42:44.940Z,97631.38
2022-07-31T00:45:13.678Z,97628.50
2022-07-31T00:47:42.018Z,97617.91
2022-07-31T00:50:10.466Z,97630.19
2022-07-31T00:52:38.943Z,97615.94
2022-07-31T00:55:06.897Z,97620.56
2022-07-31T00:57:34.395Z,97616.75
2022-07-31T01:00:01.951Z,97608.47
2022-07-31T01:02:31.911Z,97612.78
2022-07-31T01:04:59.635Z,97616.94
2022-07-31T01:07:27.073Z,97608.81
2022-07-31T01:09:55.763Z,97619.09
2022-07-31T01:12:38.956Z,97621.31
2022-07-31T01:15:09.641Z,97612.88
2022-07-31T01:17:39.025Z,97614.72
2022-07-31T01:20:08.870Z,97618.53
2022-07-31T01:23:01.162Z,97615.03
2022-07-31T01:25:54.553Z,97617.31
2022-07-31T01:29:05.208Z,97614.13
2022-07-31T01:31:57.888Z,97610.13
2022-07-31T01:34:50.301Z,97624.38
2022-07-31T01:37:21.744Z,97620.72
2022-07-31T01:40:04.316Z,97617.34
2022-07-31T01:42:37.060Z,97622.56
2022-07-31T01:45:07.562Z,97627.75
2022-07-31T01:47:36.103Z,97628.84
2022-07-31T01:50:05.906Z,97613.38
2022-07-31T01:52:33.733Z,97618.41
2022-07-31T01:55:03.151Z,97613.06
2022-07-31T01:57:35.653Z,97623.03
2022-07-31T02:00:33.899Z,97618.28
2022-07-31T02:03:04.974Z,97614.59
2022-07-31T02:05:40.830Z,97623.63
2022-07-31T02:08:10.608Z,97619.97
2022-07-31T02:10:41.206Z,97621.16
2022-07-31T02:13:11.014Z,97622.09
2022-07-31T02:15:39.027Z,97627.44
2022-07-31T02:18:07.850Z,97627.88
2022-07-31T02:20:36.899Z,97622.66
2022-07-31T02:23:04.662Z,97618.81
2022-07-31T02:25:35.889Z,97618.00
2022-07-31T02:28:09.457Z,97619.56
2022-07-31T02:30:39.964Z,97619.22
2022-07-31T02:33:23.009Z,97621.16
2022-07-31T02:35:54.173Z,97609.66
2022-07-31T02:38:26.631Z,97613.19
2022-07-31T02:40:59.467Z,97605.78
2022-07-31T02:43:31.526Z,97609.63
2022-07-31T02:46:03.809Z,97596.88
2022-07-31T02:48:32.809Z,97607.84
2022-07-31T02:51:04.931Z,97599.53
2022-07-31T02:53:33.961Z,97603.00
2022-07-31T02:56:05.069Z,97598.19
2022-07-31T02:58:39.226Z,97598.59
2022-07-31T03:01:06.942Z,97592.06
2022-07-31T03:03:36.006Z,97584.94
2022-07-31T03:06:03.953Z,97586.50
2022-07-31T03:08:31.733Z,97596.72
2022-07-31T03:11:03.949Z,97583.84
2022-07-31T03:13:33.899Z,97594.00
2022-07-31T03:16:04.659Z,97590.47
2022-07-31T03:18:32.842Z,97595.53
2022-07-31T03:21:00.298Z,97589.19
2022-07-31T03:23:36.411Z,97589.94
2022-07-31T03:26:10.804Z,97593.44
2022-07-31T03:28:39.142Z,97588.72
2022-07-31T03:31:10.862Z,97590.38
2022-07-31T03:33:38.272Z,97588.72
2022-07-31T03:36:06.157Z,97593.84
2022-07-31T03:38:41.478Z,97591.53
2022-07-31T03:41:16.732Z,97596.56
2022-07-31T03:43:47.802Z,97595.88
2022-07-31T03:46:23.885Z,97596.56
2022-07-31T03:48:52.961Z,97583.63
2022-07-31T03:51:22.478Z,97582.50
2022-07-31T03:53:51.785Z,97592.47
2022-07-31T03:56:45.954Z,97583.00
2022-07-31T03:59:17.158Z,97578.56
2022-07-31T04:01:58.018Z,97583.94
2022-07-31T04:04:41.203Z,97580.13
2022-07-31T04:07:08.946Z,97577.34
2022-07-31T04:09:37.223Z,97572.50
2022-07-31T04:12:06.293Z,97575.47
2022-07-31T04:14:34.207Z,97574.47
2022-07-31T04:17:01.921Z,97566.34
2022-07-31T04:19:32.896Z,97559.63
2022-07-31T04:22:00.983Z,97573.50
2022-07-31T04:24:28.577Z,97574.25
2022-07-31T04:27:17.697Z,97576.69
2022-07-31T04:29:46.411Z,97583.53
2022-07-31T04:32:15.663Z,97568.56
2022-07-31T04:35:05.534Z,97577.56
2022-07-31T04:37:33.774Z,97570.22
2022-07-31T04:40:01.306Z,97568.16
2022-07-31T04:42:28.947Z,97570.44
2022-07-31T04:45:01.206Z,97567.56
2022-07-31T04:47:30.471Z,97570.84
2022-07-31T04:49:59.020Z,97563.22
2022-07-31T04:52:27.528Z,97566.16
2022-07-31T04:54:57.296Z,97561.50
2022-07-31T04:57:25.214Z,97557.69
2022-07-31T04:59:58.642Z,97561.34
2022-07-31T05:02:32.700Z,97546.16
2022-07-31T05:05:00.346Z,97560.66
2022-07-31T05:07:33.021Z,97556.50
2022-07-31T05:10:05.931Z,97564.78
2022-07-31T05:12:33.691Z,97547.50
2022-07-31T05:15:01.215Z,97558.59
2022-07-31T05:17:31.207Z,97548.41
2022-07-31T05:20:16.533Z,97548.19
2022-07-31T05:23:06.443Z,97548.50
2022-07-31T05:25:52.723Z,97547.72
2022-07-31T05:28:29.920Z,97542.03
2022-07-31T05:30:58.890Z,97545.16
2022-07-31T05:33:27.347Z,97549.38
2022-07-31T05:35:56.318Z,97546.44
2022-07-31T05:38:23.964Z,97541.22
2022-07-31T05:41:11.769Z,97534.53
2022-07-31T05:44:01.999Z,97538.31
2022-07-31T05:46:45.864Z,97532.09
2022-07-31T05:49:13.719Z,97531.16
2022-07-31T05:51:44.795Z,97541.56
2022-07-31T05:54:12.549Z,97538.00
2022-07-31T05:56:58.398Z,97525.84
2022-07-31T05:59:33.170Z,97523.09
2022-07-31T06:02:00.789Z,97526.19
2022-07-31T06:04:29.458Z,97524.94
2022-07-31T06:06:56.900Z,97525.50
2022-07-31T06:09:25.069Z,97528.09
2022-07-31T06:11:53.900Z,97522.09
2022-07-31T06:14:21.263Z,97515.63
2022-07-31T06:17:07.941Z,97519.50
2022-07-31T06:19:37.224Z,97517.72
2022-07-31T06:22:04.965Z,97514.94
2022-07-31T06:24:33.908Z,97506.69
2022-07-31T06:27:02.889Z,97523.31
2022-07-31T06:29:41.263Z,97505.31
2022-07-31T06:32:12.602Z,97513.19
2022-07-31T06:34:41.153Z,97501.72
2022-07-31T06:37:09.070Z,97519.69
2022-07-31T06:39:54.357Z,97514.66
2022-07-31T06:42:46.286Z,97511.91
2022-07-31T06:45:25.097Z,97514.59
2022-07-31T06:48:27.020Z,97508.00
2022-07-31T06:51:29.095Z,97503.09
2022-07-31T06:53:52.222Z,97502.50
2022-07-31T06:56:20.997Z,97504.38
2022-07-31T06:58:48.830Z,97504.34
2022-07-31T07:01:16.359Z,97498.16
2022-07-31T07:03:43.876Z,97502.50
2022-07-31T07:06:11.645Z,97497.25
2022-07-31T07:08:39.132Z,97498.75
2022-07-31T07:11:11.455Z,97502.09
2022-07-31T07:13:46.050Z,97500.75
2022-07-31T07:16:18.100Z,97503.09
2022-07-31T07:18:45.884Z,97493.06
2022-07-31T07:21:13.718Z,97493.72
2022-07-31T07:23:41.487Z,97495.19
2022-07-31T07:26:19.098Z,97488.00
2022-07-31T07:28:46.591Z,97492.66
2022-07-31T07:31:14.093Z,97486.22
2022-07-31T07:33:42.903Z,97481.25
2022-07-31T07:36:24.155Z,97489.34
2022-07-31T07:39:09.730Z,97484.44
2022-07-31T07:41:38.987Z,97485.59
2022-07-31T07:44:07.604Z,97481.94
2022-07-31T07:46:35.374Z,97494.50
2022-07-31T07:49:05.191Z,97490.03
2022-07-31T07:52:10.089Z,97488.47
2022-07-31T07:54:41.152Z,97480.69
2022-07-31T07:57:31.782Z,97481.69
2022-07-31T08:00:18.236Z,97472.75
2022-07-31T08:03:46.803Z,97474.31
2022-07-31T08:05:42.287Z,97469.16
2022-07-31T08:08:10.505Z,97468.31
2022-07-31T08:10:49.824Z,97470.03
2022-07-31T08:13:28.447Z,97469.06
2022-07-31T08:16:14.405Z,97464.31
2022-07-31T08:18:44.639Z,97466.50
2022-07-31T08:21:12.305Z,97469.09
2022-07-31T08:23:39.792Z,97464.88
2022-07-31T08:26:11.428Z,97460.56
2022-07-31T08:28:39.381Z,97458.22
2022-07-31T08:31:06.971Z,97457.19
2022-07-31T08:33:44.816Z,97450.50
2022-07-31T08:36:12.881Z,97455.03
2022-07-31T08:38:40.247Z,97446.59
2022-07-31T08:41:39.030Z,97448.94
2022-07-31T08:44:07.877Z,97450.28
2022-07-31T08:46:40.090Z,97441.97
2022-07-31T08:49:11.229Z,97443.50
2022-07-31T08:51:51.121Z,97437.81
2022-07-31T08:54:35.998Z,97432.66
2022-07-31T08:57:05.371Z,97429.56
2022-07-31T08:59:44.268Z,97418.69
2022-07-31T09:02:13.349Z,97423.66
2022-07-31T09:04:57.473Z,97407.56
2022-07-31T09:07:24.882Z,97398.19
2022-07-31T09:09:52.634Z,97401.75
2022-07-31T09:12:33.680Z,97402.94
2022-07-31T09:15:25.210Z,97411.25
2022-07-31T09:17:54.370Z,97395.72
2022-07-31T09:20:26.270Z,97409.53
2022-07-31T09:23:10.272Z,97398.94
2022-07-31T09:25:57.315Z,97387.53
2022-07-31T09:28:52.737Z,97376.97
2022-07-31T09:31:20.969Z,97372.09
2022-07-31T09:33:58.551Z,97364.56
2022-07-31T09:36:46.320Z,97363.16
2022-07-31T09:39:32.483Z,97365.75
2022-07-31T09:42:23.713Z,97374.25
2022-07-31T09:44:58.278Z,97357.00
2022-07-31T09:47:32.932Z,97355.81
2022-07-31T09:50:05.589Z,97362.50
2022-07-31T09:52:33.703Z,97354.09
2022-07-31T09:55:15.866Z,97360.22
2022-07-31T09:58:00.560Z,97365.31
2022-07-31T10:00:34.762Z,97367.91
2022-07-31T10:03:04.326Z,97368.50
2022-07-31T10:05:33.314Z,97365.16
2022-07-31T10:08:03.161Z,97364.81
2022-07-31T10:10:53.685Z,97347.03
2022-07-31T10:13:27.636Z,97349.72
2022-07-31T10:16:00.245Z,97354.25
2022-07-31T10:19:04.276Z,97340.13
2022-07-31T10:22:00.087Z,97332.25
2022-07-31T10:24:33.621Z,97338.63
2022-07-31T10:27:09.132Z,97319.31
2022-07-31T10:29:42.356Z,97333.44
2022-07-31T10:32:10.573Z,97320.84
2022-07-31T10:34:58.206Z,97324.03
2022-07-31T10:37:53.750Z,97328.25
2022-07-31T10:41:04.209Z,97331.88
2022-07-31T10:43:55.640Z,97342.16
2022-07-31T10:46:39.630Z,97337.63
2022-07-31T10:49:16.184Z,97346.25
2022-07-31T10:52:07.125Z,97354.50
2022-07-31T10:54:44.853Z,97362.88
2022-07-31T10:57:55.234Z,97362.59
2022-07-31T11:00:46.277Z,97352.75
2022-07-31T11:03:46.623Z,97362.81
2022-07-31T11:06:25.090Z,97354.94
2022-07-31T11:08:57.777Z,97352.44
2022-07-31T11:12:00.431Z,97352.78
2022-07-31T11:14:39.196Z,97367.03
2022-07-31T11:18:25.198Z,97362.09
2022-07-31T11:20:32.584Z,97358.84
2022-07-31T11:23:01.780Z,97371.78
2022-07-31T11:25:31.001Z,97371.53
2022-07-31T11:28:10.104Z,97374.38
2022-07-31T11:30:57.208Z,97383.28
2022-07-31T11:33:42.936Z,97389.75
2022-07-31T11:36:25.072Z,97385.84
2022-07-31T11:38:54.378Z,97381.59
2022-07-31T11:41:22.879Z,97367.91
2022-07-31T11:43:52.112Z,97367.13
2022-07-31T11:46:26.249Z,97371.38
2022-07-31T11:48:57.456Z,97365.06
2022-07-31T11:51:26.832Z,97364.66
2022-07-31T11:53:57.302Z,97362.38
2022-07-31T11:56:27.673Z,97363.13
2022-07-31T11:58:57.725Z,97359.94
2022-07-31T12:01:29.929Z,97358.59
2022-07-31T12:04:01.617Z,97355.88
2022-07-31T12:06:38.789Z,97369.09
2022-07-31T12:09:06.437Z,97366.16
2022-07-31T12:11:34.322Z,97371.03
2022-07-31T12:14:01.962Z,97362.72
2022-07-31T12:16:40.520Z,97364.63
2022-07-31T12:19:08.140Z,97362.13
2022-07-31T12:21:40.777Z,97367.78
2022-07-31T12:24:13.606Z,97365.56
2022-07-31T12:26:49.183Z,97372.47
2022-07-31T12:29:16.711Z,97375.38
2022-07-31T12:31:50.527Z,97384.81
2022-07-31T12:34:34.221Z,97401.97
2022-07-31T12:37:04.559Z,97405.09
2022-07-31T12:39:54.493Z,97414.47
2022-07-31T12:42:31.252Z,97411.44
2022-07-31T12:45:19.370Z,97414.25
2022-07-31T12:47:51.559Z,97415.78
2022-07-31T12:50:25.026Z,97422.84
2022-07-31T12:52:53.618Z,97423.88
2022-07-31T12:55:21.185Z,97415.44
2022-07-31T12:57:51.402Z,97406.31
2022-07-31T13:00:23.283Z,97406.06
2022-07-31T13:02:55.903Z,97405.84
2022-07-31T13:05:24.029Z,97400.69
2022-07-31T13:07:51.926Z,97405.38
2022-07-31T13:10:23.934Z,97406.34
2022-07-31T13:12:53.730Z,97417.44
2022-07-31T13:15:29.879Z,97412.34
2022-07-31T13:17:59.715Z,97408.53
2022-07-31T13:20:27.274Z,97397.72
2022-07-31T13:22:54.715Z,97396.59
2022-07-31T13:25:22.274Z,97390.28
2022-07-31T13:27:49.646Z,97400.16
2022-07-31T13:30:17.136Z,97392.75
2022-07-31T13:32:44.643Z,97396.53
2022-07-31T13:35:26.958Z,97392.22
2022-07-31T13:37:55.782Z,97390.94
2022-07-31T13:40:43.416Z,97389.09
2022-07-31T13:43:11.370Z,97389.47
2022-07-31T13:45:38.965Z,97385.38
2022-07-31T13:48:09.200Z,97382.16
2022-07-31T13:50:41.676Z,97389.06
2022-07-31T13:53:10.159Z,97390.63
2022-07-31T13:55:37.851Z,97393.84
2022-07-31T13:58:05.483Z,97394.34
2022-07-31T14:00:32.975Z,97395.03
2022-07-31T14:03:00.536Z,97388.44
2022-07-31T14:05:28.329Z,97402.06
2022-07-31T14:07:56.475Z,97396.75
2022-07-31T14:10:48.416Z,97404.53
2022-07-31T14:13:19.148Z,97400.19
2022-07-31T14:15:47.694Z,97399.91
2022-07-31T14:18:16.032Z,97394.69
2022-07-31T14:20:43.580Z,97386.56
2022-07-31T14:23:11.050Z,97397.91
2022-07-31T14:25:39.855Z,97407.13
2022-07-31T14:28:09.000Z,97401.78
2022-07-31T14:30:37.631Z,97397.53
2022-07-31T14:33:05.421Z,97381.47
2022-07-31T14:35:33.872Z,97390.13
2022-07-31T14:38:04.239Z,97390.19
2022-07-31T14:40:32.128Z,97383.88
2022-07-31T14:42:59.906Z,97386.16
2022-07-31T14:45:27.498Z,97391.25
2022-07-31T14:47:56.232Z,97389.75
2022-07-31T14:50:24.539Z,97395.31
2022-07-31T14:52:52.155Z,97396.69
2022-07-31T14:55:23.703Z,97396.91
2022-07-31T14:57:52.384Z,97392.81
2022-07-31T15:00:20.222Z,97394.59
2022-07-31T15:02:49.661Z,97405.94
2022-07-31T15:06:39.222Z,97400.63
2022-07-31T15:08:04.986Z,97397.31
2022-07-31T15:10:32.601Z,97406.59
2022-07-31T15:13:00.257Z,97408.81
2022-07-31T15:15:28.409Z,97413.84
2022-07-31T15:17:56.304Z,97424.03
2022-07-31T15:20:32.610Z,97414.19
2022-07-31T15:23:01.918Z,97410.53
2022-07-31T15:25:29.713Z,97423.75
2022-07-31T15:27:57.328Z,97431.97
2022-07-31T15:30:24.990Z,97438.47
2022-07-31T15:32:53.528Z,97441.50
2022-07-31T15:35:21.215Z,97438.19
2022-07-31T15:37:49.811Z,97429.59
2022-07-31T15:40:17.898Z,97433.13
2022-07-31T15:42:47.195Z,97434.84
2022-07-31T15:45:17.002Z,97433.53
2022-07-31T15:47:45.572Z,97447.56
2022-07-31T15:50:15.435Z,97449.66
2022-07-31T15:52:43.146Z,97454.84
2022-07-31T15:55:11.972Z,97456.44
2022-07-31T15:57:39.521Z,97449.09
2022-07-31T16:00:10.650Z,97454.94
2022-07-31T16:02:42.695Z,97457.22
2022-07-31T16:05:23.988Z,97464.56
2022-07-31T16:08:33.443Z,97460.16
2022-07-31T16:10:48.221Z,97453.56
2022-07-31T16:13:18.688Z,97457.69
2022-07-31T16:15:46.232Z,97462.44
2022-07-31T16:18:18.074Z,97470.69
2022-07-31T16:20:46.231Z,97473.25
2022-07-31T16:23:13.714Z,97470.97
2022-07-31T16:25:41.371Z,97477.72
2022-07-31T16:28:08.796Z,97476.59
2022-07-31T16:30:36.332Z,97477.06
2022-07-31T16:33:03.891Z,97477.63
2022-07-31T16:35:31.333Z,97478.50
2022-07-31T16:37:58.769Z,97476.22
2022-07-31T16:40:30.814Z,97481.00
2022-07-31T16:43:47.392Z,97478.41
2022-07-31T16:45:53.306Z,97487.19
2022-07-31T16:48:21.020Z,97486.13
2022-07-31T16:50:52.999Z,97490.81
2022-07-31T16:54:11.337Z,97499.41
2022-07-31T16:56:14.760Z,97497.94
2022-07-31T16:58:44.211Z,97499.41
2022-07-31T17:01:53.941Z,97496.91
2022-07-31T17:04:03.827Z,97495.41
2022-07-31T17:06:36.459Z,97497.88
2022-07-31T17:09:16.569Z,97492.16
2022-07-31T17:11:51.324Z,97488.25
2022-07-31T17:14:23.980Z,97484.13
2022-07-31T17:16:53.831Z,97477.94
2022-07-31T17:19:42.301Z,97480.38
2022-07-31T17:22:17.488Z,97463.78
2022-07-31T17:24:51.295Z,97475.56
2022-07-31T17:27:20.294Z,97463.91
2022-07-31T17:29:47.995Z,97464.91
2022-07-31T17:32:17.732Z,97451.41
2022-07-31T17:34:46.599Z,97453.69
2022-07-31T17:37:14.352Z,97455.75
2022-07-31T17:39:41.878Z,97445.44
2022-07-31T17:42:09.848Z,97452.59
2022-07-31T17:44:39.849Z,97460.31
2022-07-31T17:47:08.418Z,97446.63
2022-07-31T17:49:36.845Z,97443.41
2022-07-31T17:52:04.846Z,97453.47
2022-07-31T17:54:34.729Z,97437.88
2022-07-31T17:57:03.322Z,97443.56
2022-07-31T17:59:31.144Z,97436.91
2022-07-31T18:02:04.225Z,97427.69
2022-07-31T18:04:35.359Z,97437.19
2022-07-31T18:07:04.561Z,97427.13
2022-07-31T18:09:32.762Z,97420.25
2022-07-31T18:12:00.371Z,97422.88
2022-07-31T18:14:28.195Z,97427.47
2022-07-31T18:16:55.826Z,97425.34
2022-07-31T18:19:23.400Z,97426.75
2022-07-31T18:21:51.623Z,97422.16
2022-07-31T18:24:20.672Z,97424.94
2022-07-31T18:26:49.476Z,97421.28
2022-07-31T18:29:18.000Z,97422.19
2022-07-31T18:31:45.937Z,97417.16
2022-07-31T18:34:14.136Z,97413.19
2022-07-31T18:36:41.898Z,97409.66
2022-07-31T18:39:09.528Z,97407.69
2022-07-31T18:41:40.029Z,97414.13
2022-07-31T18:44:07.698Z,97416.28
2022-07-31T18:46:35.756Z,97412.13
2022-07-31T18:49:04.803Z,97412.31
2022-07-31T18:51:32.934Z,97403.59
2022-07-31T18:54:01.682Z,97414.91
2022-07-31T18:56:29.342Z,97407.88
2022-07-31T18:58:57.273Z,97404.78
2022-07-31T19:01:24.855Z,97415.22
2022-07-31T19:03:53.477Z,97409.69
2022-07-31T19:06:22.885Z,97407.38
2022-07-31T19:08:52.373Z,97411.84
2022-07-31T19:11:20.557Z,97406.47
2022-07-31T19:13:48.387Z,97400.81
2022-07-31T19:16:17.762Z,97402.34
2022-07-31T19:18:45.746Z,97406.47
2022-07-31T19:21:41.167Z,97411.97
2022-07-31T19:24:06.650Z,97412.75
2022-07-31T19:26:34.125Z,97397.00
2022-07-31T19:29:01.542Z,97405.72
2022-07-31T19:31:29.027Z,97417.50
2022-07-31T19:33:56.535Z,97413.53
2022-07-31T19:36:23.990Z,97415.19
2022-07-31T19:38:51.453Z,97411.97
2022-07-31T19:41:19.005Z,97425.56
2022-07-31T19:43:46.730Z,97435.06
2022-07-31T19:46:14.114Z,97428.00
2022-07-31T19:48:46.258Z,97443.00
2022-07-31T19:51:14.743Z,97436.13
2022-07-31T19:53:43.071Z,97434.59
2022-07-31T19:58:41.400Z,97426.63
2022-07-31T20:01:10.758Z,97437.94
2022-07-31T20:03:38.354Z,97427.53
2022-07-31T20:06:06.651Z,97432.59
2022-07-31T20:08:34.674Z,97437.47
2022-07-31T20:11:04.536Z,97437.03
2022-07-31T20:13:37.982Z,97440.06
2022-07-31T20:16:05.760Z,97443.06
2022-07-31T20:18:33.253Z,97435.06
2022-07-31T20:21:07.550Z,97443.94
2022-07-31T20:23:38.941Z,97442.84
2022-07-31T20:26:08.517Z,97441.59
2022-07-31T20:28:36.254Z,97427.97
2022-07-31T20:31:03.874Z,97432.59
2022-07-31T20:33:31.358Z,97432.28
2022-07-31T20:35:58.787Z,97426.78
2022-07-31T20:40:55.833Z,97439.63
2022-07-31T20:43:25.365Z,97440.84
2022-07-31T20:45:53.845Z,97432.47
2022-07-31T20:48:24.605Z,97430.47
2022-07-31T20:50:52.659Z,97422.97
2022-07-31T20:53:21.178Z,97410.41
2022-07-31T20:55:50.561Z,97411.91
2022-07-31T20:58:19.817Z,97423.22
2022-07-31T21:00:48.759Z,97430.09
2022-07-31T21:03:17.309Z,97428.44
2022-07-31T21:05:45.783Z,97421.69
2022-07-31T21:08:13.320Z,97426.75
2022-07-31T21:10:40.829Z,97436.06
2022-07-31T21:13:08.617Z,97425.34
2022-07-31T21:15:41.938Z,97427.97
2022-07-31T21:18:19.199Z,97432.09
2022-07-31T21:20:51.615Z,97426.44
2022-07-31T21:23:20.305Z,97426.81
2022-07-31T21:25:48.260Z,97428.16
2022-07-31T21:28:15.890Z,97424.00
2022-07-31T21:30:43.479Z,97418.81
2022-07-31T21:33:11.039Z,97430.56
2022-07-31T21:35:40.287Z,97435.94
2022-07-31T21:38:12.739Z,97432.44
2022-07-31T21:40:40.749Z,97425.09
2022-07-31T21:43:09.703Z,97425.53
2022-07-31T21:45:50.980Z,97435.16
2022-07-31T21:48:25.787Z,97442.06
2022-07-31T21:50:54.719Z,97436.84
2022-07-31T21:53:23.497Z,97429.06
2022-07-31T21:55:51.309Z,97431.69
2022-07-31T21:58:19.053Z,97438.84
2022-07-31T22:00:46.650Z,97431.81
2022-07-31T22:03:14.205Z,97431.09
2022-07-31T22:05:59.962Z,97434.88
2022-07-31T22:08:27.662Z,97440.09
2022-07-31T22:10:55.151Z,97443.47
2022-07-31T22:13:22.622Z,97434.44
2022-07-31T22:15:58.439Z,97439.19
2022-07-31T22:18:30.766Z,97442.09
2022-07-31T22:23:27.750Z,97436.72
2022-07-31T22:25:55.516Z,97439.94
2022-07-31T22:28:24.420Z,97437.63
2022-07-31T22:30:52.820Z,97443.59
2022-07-31T22:33:21.274Z,97432.72
2022-07-31T22:35:59.586Z,97433.06
2022-07-31T22:38:29.140Z,97433.34
2022-07-31T22:40:57.409Z,97438.56
2022-07-31T22:44:10.710Z,97430.47
2022-07-31T22:46:13.398Z,97432.13
2022-07-31T22:48:41.345Z,97436.44
2022-07-31T22:51:14.247Z,97440.25
2022-07-31T22:53:42.105Z,97432.91
2022-07-31T22:56:09.606Z,97427.25
2022-07-31T22:58:37.111Z,97431.38
2022-07-31T23:01:04.504Z,97426.50
2022-07-31T23:03:31.993Z,97422.19
2022-07-31T23:06:02.585Z,97417.03
2022-07-31T23:08:55.058Z,97424.34
2022-07-31T23:11:24.876Z,97428.50
2022-07-31T23:13:52.541Z,97437.63
2022-07-31T23:16:20.670Z,97422.66
2022-07-31T23:18:48.812Z,97430.00
2022-07-31T23:21:17.395Z,97422.38
2022-07-31T23:23:48.998Z,97417.03
2022-07-31T23:26:21.181Z,97432.63
2022-07-31T23:28:48.928Z,97431.09
2022-07-31T23:31:17.866Z,97432.28
2022-07-31T23:33:46.038Z,97430.16
2022-07-31T23:36:14.567Z,97424.50
2022-07-31T23:38:43.125Z,97427.38
2022-07-31T23:41:10.957Z,97430.91
2022-07-31T23:43:38.558Z,97433.06
2022-07-31T23:46:06.628Z,97444.34
2022-07-31T23:48:37.234Z,97444.22
2022-07-31T23:51:07.025Z,97441.78
2022-07-31T23:53:34.401Z,97433.97
2022-07-31T23:56:01.810Z,97447.72
2022-07-31T23:58:29.518Z,97444.97
